createdAt,value
2022-11-16T00:01:41.609Z,9.60
2022-11-16T00:04:09.494Z,9.60
2022-11-16T00:06:36.250Z,9.50
2022-11-16T00:09:22.208Z,9.50
2022-11-16T00:11:50.766Z,9.50
2022-11-16T00:14:18.451Z,9.60
2022-11-16T00:16:45.226Z,9.50
2022-11-16T00:19:12.658Z,9.60
2022-11-16T00:21:40.246Z,9.60
2022-11-16T00:24:08.083Z,9.60
2022-11-16T00:26:36.437Z,9.50
2022-11-16T00:29:04.032Z,9.50
2022-11-16T00:31:31.684Z,9.50
2022-11-16T00:33:59.446Z,9.40
2022-11-16T00:36:28.088Z,9.40
2022-11-16T00:38:55.183Z,9.40
2022-11-16T00:41:23.280Z,9.40
2022-11-16T00:43:50.894Z,9.30
2022-11-16T00:46:18.508Z,9.40
2022-11-16T00:48:46.168Z,9.40
2022-11-16T00:51:13.803Z,9.40
2022-11-16T00:53:41.884Z,9.40
2022-11-16T00:56:08.989Z,9.40
2022-11-16T00:58:42.133Z,9.40
2022-11-16T01:01:11.547Z,9.40
2022-11-16T01:03:39.176Z,9.40
2022-11-16T01:06:08.826Z,9.30
2022-11-16T01:08:40.436Z,9.30
2022-11-16T01:11:26.507Z,9.40
2022-11-16T01:13:54.101Z,9.40
2022-11-16T01:16:22.810Z,9.30
2022-11-16T01:18:51.459Z,9.20
2022-11-16T01:21:20.082Z,9.20
2022-11-16T01:23:46.914Z,9.20
2022-11-16T01:26:13.689Z,9.20
2022-11-16T01:28:42.352Z,9.30
2022-11-16T01:31:11.079Z,9.20
2022-11-16T01:33:38.341Z,9.20
2022-11-16T01:36:14.797Z,9.20
2022-11-16T01:38:43.570Z,9.20
2022-11-16T01:41:21.534Z,9.20
2022-11-16T01:43:57.182Z,9.20
2022-11-16T01:46:28.785Z,9.30
2022-11-16T01:49:07.465Z,9.20
2022-11-16T01:51:35.465Z,9.30
2022-11-16T01:54:05.674Z,9.30
2022-11-16T01:56:35.410Z,9.30
2022-11-16T01:59:11.073Z,9.30
2022-11-16T02:01:38.459Z,9.30
2022-11-16T02:04:05.362Z,9.30
2022-11-16T02:06:44.249Z,9.30
2022-11-16T02:09:36.048Z,9.30
2022-11-16T02:12:25.041Z,9.20
2022-11-16T02:15:09.229Z,9.20
2022-11-16T02:17:55.768Z,9.30
2022-11-16T02:20:27.759Z,9.20
2022-11-16T02:23:14.425Z,9.30
2022-11-16T02:25:54.119Z,9.30
2022-11-16T02:28:30.974Z,9.30
2022-11-16T02:31:01.384Z,9.20
2022-11-16T02:33:31.369Z,9.30
2022-11-16T02:35:59.956Z,9.20
2022-11-16T02:38:29.560Z,9.20
2022-11-16T02:41:09.430Z,9.30
2022-11-16T02:43:45.095Z,9.30
2022-11-16T02:46:23.722Z,9.30
2022-11-16T02:48:53.443Z,9.30
2022-11-16T02:51:22.391Z,9.20
2022-11-16T02:54:03.030Z,9.20
2022-11-16T02:56:31.748Z,9.20
2022-11-16T02:59:01.348Z,9.20
2022-11-16T03:04:36.406Z,9.20
2022-11-16T03:07:06.115Z,9.20
2022-11-16T03:09:34.837Z,9.10
2022-11-16T03:12:02.967Z,9.10
2022-11-16T03:14:42.318Z,9.00
2022-11-16T03:17:14.685Z,9.00
2022-11-16T03:19:44.388Z,9.00
2022-11-16T03:22:14.277Z,9.00
2022-11-16T03:24:41.609Z,9.10
2022-11-16T03:27:14.219Z,9.10
2022-11-16T03:29:45.819Z,9.10
2022-11-16T03:32:25.557Z,9.10
2022-11-16T03:35:02.701Z,9.10
2022-11-16T03:37:30.105Z,9.10
2022-11-16T03:39:59.225Z,9.20
2022-11-16T03:42:26.868Z,9.20
2022-11-16T03:44:55.477Z,9.20
2022-11-16T03:47:22.297Z,9.20
2022-11-16T03:49:49.061Z,9.20
2022-11-16T03:52:18.930Z,9.30
2022-11-16T03:54:50.028Z,9.30
2022-11-16T03:57:19.540Z,9.30
2022-11-16T03:59:52.904Z,9.40
2022-11-16T04:02:20.653Z,9.40
2022-11-16T04:05:08.779Z,9.40
2022-11-16T04:07:54.654Z,9.40
2022-11-16T04:10:40.152Z,9.40
2022-11-16T04:13:28.294Z,9.40
2022-11-16T04:16:13.950Z,9.40
2022-11-16T04:18:59.698Z,9.50
2022-11-16T04:21:51.227Z,9.40
2022-11-16T04:24:21.976Z,9.40
2022-11-16T04:27:09.153Z,9.40
2022-11-16T04:29:36.306Z,9.30
2022-11-16T04:32:22.386Z,9.20
2022-11-16T04:35:08.574Z,9.20
2022-11-16T04:37:53.258Z,9.20
2022-11-16T04:40:29.461Z,9.20
2022-11-16T04:42:58.369Z,9.20
2022-11-16T04:45:45.400Z,9.30
2022-11-16T04:48:13.893Z,9.40
2022-11-16T04:50:41.325Z,9.40
2022-11-16T04:53:08.907Z,9.50
2022-11-16T04:55:44.231Z,9.60
2022-11-16T04:58:11.126Z,9.70
2022-11-16T05:00:38.541Z,9.70
2022-11-16T05:03:05.471Z,9.80
2022-11-16T05:05:38.039Z,9.90
2022-11-16T05:08:05.502Z,10.00
2022-11-16T05:10:34.106Z,10.10
2022-11-16T05:13:01.285Z,10.10
2022-11-16T05:15:28.681Z,10.20
2022-11-16T05:17:58.261Z,10.30
2022-11-16T05:20:44.823Z,10.30
2022-11-16T05:23:32.572Z,10.30
2022-11-16T05:26:04.892Z,10.30
2022-11-16T05:28:32.807Z,10.30
2022-11-16T05:31:00.094Z,10.30
2022-11-16T05:33:28.947Z,10.30
2022-11-16T05:35:55.700Z,10.20
2022-11-16T05:38:22.676Z,10.20
2022-11-16T05:40:53.720Z,10.20
2022-11-16T05:43:20.862Z,10.20
2022-11-16T05:45:56.647Z,10.20
2022-11-16T05:48:23.461Z,10.20
2022-11-16T05:50:50.422Z,10.20
2022-11-16T05:53:25.139Z,10.20
2022-11-16T05:55:58.673Z,10.20
2022-11-16T05:58:26.196Z,10.20
2022-11-16T06:00:53.719Z,10.20
2022-11-16T06:03:20.601Z,10.10
2022-11-16T06:05:47.582Z,10.10
2022-11-16T06:08:17.018Z,10.00
2022-11-16T06:10:43.789Z,9.90
2022-11-16T06:13:10.562Z,9.90
2022-11-16T06:15:38.479Z,9.90
2022-11-16T06:18:07.520Z,9.90
2022-11-16T06:20:35.424Z,9.90
2022-11-16T06:23:02.532Z,9.80
2022-11-16T06:25:30.897Z,9.80
2022-11-16T06:27:58.518Z,9.80
2022-11-16T06:30:25.464Z,9.80
2022-11-16T06:32:53.111Z,9.80
2022-11-16T06:35:19.980Z,9.90
2022-11-16T06:37:46.981Z,9.90
2022-11-16T06:40:13.815Z,9.90
2022-11-16T06:42:43.633Z,9.90
2022-11-16T06:45:13.051Z,9.90
2022-11-16T06:47:44.696Z,10.00
2022-11-16T06:50:11.976Z,10.00
2022-11-16T06:52:39.119Z,10.00
2022-11-16T06:55:07.183Z,10.00
2022-11-16T06:57:36.068Z,10.00
2022-11-16T07:00:05.089Z,10.00
2022-11-16T07:02:37.861Z,10.00
2022-11-16T07:05:06.552Z,10.00
2022-11-16T07:07:33.696Z,9.90
2022-11-16T07:10:01.677Z,9.90
2022-11-16T07:12:28.639Z,9.80
2022-11-16T07:14:57.517Z,9.80
2022-11-16T07:17:25.537Z,9.70
2022-11-16T07:19:53.127Z,9.80
2022-11-16T07:22:20.241Z,9.80
2022-11-16T07:24:49.377Z,9.80
2022-11-16T07:27:17.996Z,9.90
2022-11-16T07:29:48.832Z,9.80
2022-11-16T07:32:40.007Z,9.70
2022-11-16T07:35:33.039Z,9.70
2022-11-16T07:38:01.685Z,9.80
2022-11-16T07:40:31.433Z,9.80
2022-11-16T07:42:58.742Z,9.80
2022-11-16T07:45:25.492Z,9.90
2022-11-16T07:47:58.305Z,9.90
2022-11-16T07:50:45.072Z,9.90
2022-11-16T07:53:11.931Z,10.00
2022-11-16T07:55:39.620Z,10.00
2022-11-16T07:58:06.556Z,10.00
2022-11-16T08:00:33.573Z,9.90
2022-11-16T08:03:09.222Z,10.00
2022-11-16T08:05:36.590Z,10.00
2022-11-16T08:08:03.838Z,10.00
2022-11-16T08:10:33.488Z,10.00
2022-11-16T08:13:00.426Z,10.00
2022-11-16T08:15:27.341Z,10.00
2022-11-16T08:17:54.256Z,10.00
2022-11-16T08:20:21.197Z,10.10
2022-11-16T08:22:49.823Z,10.10
2022-11-16T08:25:17.907Z,10.10
2022-11-16T08:27:45.782Z,10.10
2022-11-16T08:30:13.212Z,10.10
2022-11-16T08:32:42.219Z,10.10
2022-11-16T08:35:09.871Z,10.10
2022-11-16T08:37:36.785Z,10.10
2022-11-16T08:40:03.776Z,10.00
2022-11-16T08:42:38.222Z,9.90
2022-11-16T08:45:07.928Z,10.00
2022-11-16T08:47:34.874Z,9.90
2022-11-16T09:32:39.498Z,10.50
2022-11-16T09:35:06.666Z,10.50
2022-11-16T09:37:33.489Z,10.50
2022-11-16T09:40:00.705Z,10.60
2022-11-16T09:42:43.315Z,10.40
2022-11-16T09:45:32.728Z,10.50
2022-11-16T09:48:03.359Z,10.40
2022-11-16T09:50:31.054Z,10.50
2022-11-16T09:53:02.510Z,10.60
2022-11-16T09:55:39.152Z,10.70
2022-11-16T09:58:10.804Z,10.70
2022-11-16T10:00:40.415Z,10.80
2022-11-16T10:03:11.994Z,10.80
2022-11-16T10:05:42.595Z,10.90
2022-11-16T10:08:16.220Z,10.90
2022-11-16T10:11:05.879Z,10.90
2022-11-16T10:13:54.553Z,11.00
2022-11-16T10:16:28.174Z,11.00
2022-11-16T10:18:55.800Z,11.00
2022-11-16T10:21:42.445Z,11.10
2022-11-16T10:24:35.193Z,11.00
2022-11-16T10:27:22.827Z,11.00
2022-11-16T10:29:50.455Z,11.00
2022-11-16T10:32:31.093Z,10.90
2022-11-16T10:35:28.871Z,11.00
2022-11-16T10:38:13.760Z,10.90
2022-11-16T10:41:02.288Z,10.90
2022-11-16T10:43:34.094Z,10.80
2022-11-16T10:46:18.921Z,10.90
2022-11-16T12:04:46.696Z,11.20
2022-11-16T12:07:21.263Z,11.20
2022-11-16T12:10:07.698Z,11.20
2022-11-16T12:12:56.681Z,11.30
2022-11-16T12:18:54.177Z,11.40
2022-11-16T12:21:57.251Z,11.40
2022-11-16T12:28:29.800Z,11.40
2022-11-16T12:34:57.696Z,11.40
2022-11-16T12:53:42.322Z,11.50
2022-11-16T12:56:15.425Z,11.50
2022-11-16T12:59:00.895Z,11.60
2022-11-16T13:01:41.483Z,11.70
2022-11-16T13:04:22.342Z,11.80
2022-11-16T13:06:52.551Z,11.90
2022-11-16T13:09:25.114Z,11.90
2022-11-16T13:12:00.882Z,11.90
2022-11-16T13:14:37.481Z,11.90
2022-11-16T13:17:06.086Z,11.90
2022-11-16T13:19:36.689Z,12.00
2022-11-16T13:22:22.695Z,11.90
2022-11-16T13:24:51.011Z,11.80
2022-11-16T13:27:23.558Z,11.80
2022-11-16T13:30:05.219Z,11.80
2022-11-16T13:32:32.803Z,11.90
2022-11-16T13:35:01.422Z,11.90
2022-11-16T13:37:36.033Z,11.90
2022-11-16T13:40:04.663Z,12.00
2022-11-16T13:42:37.288Z,12.00
2022-11-16T13:45:11.868Z,12.10
2022-11-16T13:47:41.542Z,12.10
2022-11-16T13:50:18.180Z,12.10
2022-11-16T13:53:36.441Z,12.00
2022-11-16T13:55:36.390Z,12.00
2022-11-16T13:58:04.686Z,12.10
2022-11-16T14:00:34.592Z,12.10
2022-11-16T14:03:17.226Z,12.10
2022-11-16T14:05:48.007Z,12.10
2022-11-16T14:08:24.476Z,12.10
2022-11-16T14:11:01.134Z,12.10
2022-11-16T14:13:38.746Z,12.10
2022-11-16T14:16:18.402Z,12.00
2022-11-16T14:18:56.018Z,11.90
2022-11-16T14:21:27.655Z,11.90
2022-11-16T14:24:13.337Z,11.80
2022-11-16T14:26:46.953Z,11.70
2022-11-16T14:29:21.568Z,11.60
2022-11-16T14:31:52.187Z,11.60
2022-11-16T14:34:32.802Z,11.50
2022-11-16T14:37:01.434Z,11.40
2022-11-16T14:39:29.000Z,11.30
2022-11-16T14:41:58.597Z,11.20
2022-11-16T14:44:28.682Z,11.20
2022-11-16T14:46:59.817Z,11.10
2022-11-16T14:49:28.419Z,11.00
2022-11-16T14:51:58.007Z,10.90
2022-11-16T14:54:37.704Z,10.80
2022-11-16T14:57:19.320Z,10.70
2022-11-16T14:59:46.911Z,10.70
2022-11-16T15:02:19.535Z,10.50
2022-11-16T15:04:49.252Z,10.50
2022-11-16T15:07:18.822Z,10.40
2022-11-16T15:09:51.351Z,10.30
2022-11-16T15:12:39.048Z,10.20
2022-11-16T15:15:15.651Z,10.20
2022-11-16T15:17:44.267Z,10.10
2022-11-16T15:20:11.843Z,10.00
2022-11-16T15:22:45.488Z,9.90
2022-11-16T15:25:28.440Z,9.90
2022-11-16T15:27:56.735Z,9.80
2022-11-16T15:30:37.380Z,9.80
2022-11-16T15:33:10.000Z,9.70
2022-11-16T15:35:38.595Z,9.70
2022-11-16T15:38:13.230Z,9.70
2022-11-16T15:40:41.814Z,9.60
2022-11-16T15:43:11.423Z,9.70
2022-11-16T15:45:38.770Z,9.70
2022-11-16T15:48:06.615Z,9.70
2022-11-16T15:50:34.192Z,9.70
2022-11-16T15:53:01.777Z,9.80
2022-11-16T15:55:35.521Z,9.80
2022-11-16T15:58:05.019Z,9.80
2022-11-16T16:00:33.602Z,9.90
2022-11-16T16:03:21.730Z,9.90
2022-11-16T16:05:49.888Z,9.90
2022-11-16T16:08:29.562Z,9.80
2022-11-16T16:11:03.205Z,9.80
2022-11-16T16:13:36.353Z,9.80
2022-11-16T16:16:20.437Z,9.70
2022-11-16T16:18:48.113Z,9.70
2022-11-16T16:21:15.654Z,9.70
2022-11-16T16:23:56.423Z,9.70
2022-11-16T16:26:23.871Z,9.60
2022-11-16T16:28:51.486Z,9.50
2022-11-16T16:31:21.088Z,9.40
2022-11-16T16:33:50.725Z,9.40
2022-11-16T16:36:18.266Z,9.20
2022-11-16T16:38:46.869Z,9.20
2022-11-16T16:41:24.090Z,9.10
2022-11-16T16:43:52.089Z,9.00
2022-11-16T16:46:19.717Z,8.90
2022-11-16T16:48:48.435Z,8.80
2022-11-16T16:51:23.004Z,8.80
2022-11-16T16:53:54.190Z,8.70
2022-11-16T16:56:23.124Z,8.60
2022-11-16T16:58:54.734Z,8.50
2022-11-16T17:01:22.525Z,8.40
2022-11-16T17:03:51.794Z,8.40
2022-11-16T17:06:20.570Z,8.40
2022-11-16T17:08:49.161Z,8.30
2022-11-16T17:11:19.802Z,8.20
2022-11-16T17:13:49.685Z,8.20
2022-11-16T17:16:19.262Z,8.10
2022-11-16T17:18:46.589Z,8.10
2022-11-16T17:21:15.201Z,8.00
2022-11-16T17:23:42.957Z,7.90
2022-11-16T17:26:10.439Z,7.80
2022-11-16T17:28:38.987Z,7.80
2022-11-16T17:31:07.591Z,7.80
2022-11-16T17:33:35.536Z,7.70
2022-11-16T17:36:05.798Z,7.70
2022-11-16T17:38:35.876Z,7.60
2022-11-16T17:41:11.262Z,7.60
2022-11-16T17:43:39.515Z,7.50
2022-11-16T17:46:18.309Z,7.50
2022-11-16T17:48:47.892Z,7.40
2022-11-16T17:51:20.716Z,7.40
2022-11-16T17:53:51.890Z,7.30
2022-11-16T17:56:22.133Z,7.30
2022-11-16T17:58:54.822Z,7.30
2022-11-16T18:01:25.033Z,7.20
2022-11-16T18:03:55.645Z,7.20
2022-11-16T18:06:24.196Z,7.10
2022-11-16T18:08:52.416Z,7.10
2022-11-16T18:11:19.430Z,7.00
2022-11-16T18:13:48.012Z,6.90
2022-11-16T18:16:18.594Z,6.90
2022-11-16T18:18:47.199Z,6.90
2022-11-16T18:21:20.748Z,6.90
2022-11-16T18:23:51.464Z,6.80
2022-11-16T18:26:23.058Z,6.80
2022-11-16T18:28:51.649Z,6.80
2022-11-16T18:31:25.819Z,6.80
2022-11-16T18:33:53.896Z,6.70
2022-11-16T18:36:23.592Z,6.60
2022-11-16T18:38:51.102Z,6.50
2022-11-16T18:41:24.791Z,6.50
2022-11-16T18:43:55.308Z,6.50
2022-11-16T18:46:26.144Z,6.60
2022-11-16T18:48:58.307Z,6.50
2022-11-16T18:51:28.948Z,6.40
2022-11-16T18:53:57.758Z,6.40
2022-11-16T18:56:26.357Z,6.40
2022-11-16T18:58:55.773Z,6.30
2022-11-16T19:01:24.694Z,6.30
2022-11-16T19:03:55.278Z,6.30
2022-11-16T19:06:23.751Z,6.30
2022-11-16T19:08:57.572Z,6.30
2022-11-16T19:11:32.085Z,6.20
2022-11-16T19:14:08.648Z,6.20
2022-11-16T19:16:36.239Z,6.10
2022-11-16T19:19:05.852Z,6.10
2022-11-16T19:21:34.440Z,6.10
2022-11-16T19:24:02.168Z,6.10
2022-11-16T19:26:33.663Z,6.10
2022-11-16T19:29:05.270Z,6.10
2022-11-16T19:31:36.860Z,6.00
2022-11-16T19:34:05.472Z,6.00
2022-11-16T19:36:35.556Z,6.00
2022-11-16T19:39:05.460Z,5.90
2022-11-16T19:41:33.310Z,5.90
2022-11-16T19:44:02.891Z,6.00
2022-11-16T19:46:34.503Z,5.90
2022-11-16T19:49:05.082Z,5.90
2022-11-16T19:51:35.733Z,5.90
2022-11-16T19:54:06.599Z,5.90
2022-11-16T19:56:34.930Z,5.90
2022-11-16T19:59:02.524Z,5.80
2022-11-16T20:01:33.221Z,5.90
2022-11-16T20:04:03.805Z,5.80
2022-11-16T20:06:33.358Z,5.90
2022-11-16T20:09:02.975Z,5.90
2022-11-16T20:11:32.571Z,5.90
2022-11-16T20:14:00.351Z,5.90
2022-11-16T20:16:35.542Z,5.80
2022-11-16T20:19:06.412Z,5.80
2022-11-16T20:21:35.059Z,5.90
2022-11-16T20:24:07.132Z,5.90
2022-11-16T20:26:36.430Z,5.90
2022-11-16T20:29:09.173Z,6.00
2022-11-16T20:31:36.475Z,6.00
2022-11-16T20:34:05.059Z,6.10
2022-11-16T20:36:33.670Z,6.10
2022-11-16T20:39:02.305Z,6.10
2022-11-16T20:41:30.976Z,6.10
2022-11-16T20:43:59.477Z,6.10
2022-11-16T20:46:32.110Z,6.00
2022-11-16T20:49:03.715Z,6.10
2022-11-16T20:51:31.537Z,6.10
2022-11-16T20:53:58.921Z,6.10
2022-11-16T20:56:26.507Z,6.20
2022-11-16T20:58:54.111Z,6.10
2022-11-16T21:01:29.181Z,6.10
2022-11-16T21:03:57.329Z,6.20
2022-11-16T21:06:27.928Z,6.20
2022-11-16T21:08:55.542Z,6.20
2022-11-16T21:11:27.148Z,6.20
2022-11-16T21:14:13.816Z,6.20
2022-11-16T21:16:42.439Z,6.20
2022-11-16T21:19:10.016Z,6.20
2022-11-16T21:21:39.605Z,6.20
2022-11-16T21:24:09.225Z,6.20
2022-11-16T21:26:37.805Z,6.20
2022-11-16T21:29:05.411Z,6.20
2022-11-16T21:31:36.163Z,6.20
2022-11-16T21:34:04.609Z,6.20
2022-11-16T21:36:34.232Z,6.30
2022-11-16T21:39:02.809Z,6.30
2022-11-16T21:41:30.425Z,6.30
2022-11-16T21:43:58.051Z,6.30
2022-11-16T21:46:26.624Z,6.40
2022-11-16T21:48:55.191Z,6.40
2022-11-16T21:51:23.793Z,6.40
2022-11-16T21:53:51.318Z,6.40
2022-11-16T21:56:20.019Z,6.50
2022-11-16T21:58:47.837Z,6.50
2022-11-16T22:01:18.461Z,6.50
2022-11-16T22:03:45.790Z,6.50
2022-11-16T22:06:33.479Z,6.50
2022-11-16T22:09:01.069Z,6.60
2022-11-16T22:11:29.645Z,6.60
2022-11-16T22:13:57.233Z,6.50
2022-11-16T22:16:24.847Z,6.50
2022-11-16T22:18:52.443Z,6.50
2022-11-16T22:21:20.026Z,6.40
2022-11-16T22:23:47.745Z,6.50
2022-11-16T22:26:15.633Z,6.40
2022-11-16T22:28:43.808Z,6.40
2022-11-16T22:31:12.464Z,6.30
2022-11-16T22:33:40.013Z,6.30
2022-11-16T22:36:10.617Z,6.30
2022-11-16T22:38:41.782Z,6.30
2022-11-16T22:41:09.867Z,6.30
2022-11-16T22:43:40.609Z,6.40
2022-11-16T22:46:07.998Z,6.40
2022-11-16T22:48:36.602Z,6.40
2022-11-16T22:51:06.210Z,6.40
2022-11-16T22:53:34.157Z,6.40
2022-11-16T22:56:09.438Z,6.40
2022-11-16T22:58:38.032Z,6.40
2022-11-16T23:01:07.652Z,6.40
2022-11-16T23:03:35.922Z,6.40
2022-11-16T23:06:04.825Z,6.40
2022-11-16T23:08:33.436Z,6.50
2022-11-16T23:11:21.579Z,6.50
2022-11-16T23:14:07.758Z,6.50
2022-11-16T23:16:36.411Z,6.50
2022-11-16T23:19:03.981Z,6.60
2022-11-16T23:21:49.647Z,6.60
2022-11-16T23:24:36.348Z,6.60
2022-11-16T23:27:22.988Z,6.60
2022-11-16T23:29:50.586Z,6.60
2022-11-16T23:32:18.178Z,6.70
2022-11-16T23:34:45.760Z,6.70
2022-11-16T23:37:14.371Z,6.70
2022-11-16T23:39:41.957Z,6.70
2022-11-16T23:42:28.614Z,6.70
2022-11-16T23:44:56.229Z,6.70
2022-11-16T23:47:23.826Z,6.70
2022-11-16T23:49:51.409Z,6.80
2022-11-16T23:52:20.817Z,6.80
2022-11-16T23:54:48.606Z,6.80
2022-11-16T23:57:16.193Z,6.80
2022-11-16T23:59:44.794Z,6.70
